フェアバンクス の空港の天気 - METARとTAF

フェアバンクス国際空港 ( PAFA / FAI ) - アメリカ アラスカ州フェアバンクス
飛行場実況気象(Metar)
観測時間12/13 20:53 AKST (12/14 05:53 UTC)
風向・風速静穏 0m/s
視程10km以上
天気現象
少しの雲 雲底高度 300m
全天の4割程度の雲 雲底高度 3350m
全天の4割程度の雲 雲底高度 4570m
気温-23.3℃
湿度74%
気圧998.1hPa
METARPAFA 140553Z 00000KT 10SM FEW010 SCT110 SCT150 M23/M27 A2943 RMK AO2 SLP981 T12331267 11156 21239 51010 PNO $
過去の天気等 Google飛行場航空写真 Wunderground天気予報

過去48時間のMETAR

飛行場予報(TAF)
発表時間: 12/13 20:22 AKST (12/14 05:22 UTC)
予報対象時間: 13日21時 AKST ~ 15日3時 AKST
風向・風速静穏
視程10km以上
少しの雲 雲底高度 760m
全天の4割程度の雲 雲底高度 1070m
全天の8割程度の雲 雲底高度 3050m
14日3時 AKST から
風向・風速静穏
視程10km以上
少しの雲 雲底高度 1520m
全天の4割程度の雲 雲底高度 3050m
全天の8割程度の雲 雲底高度 6100m
PAFA 140522Z 1406/1512 00000KT P6SM FEW025 SCT035 BKN100
FM141200 00000KT P6SM FEW050 SCT100 BKN200